sensor_id;sensor_type;location;lat;lon;timestamp;temperature;humidity
52867;DHT22;38739;53.324;6.862;2023-08-07T00:00:30;15.40;99.90
52867;DHT22;38739;53.324;6.862;2023-08-07T00:02:56;15.40;99.90
52867;DHT22;38739;53.324;6.862;2023-08-07T00:05:22;15.40;99.90
52867;DHT22;38739;53.324;6.862;2023-08-07T00:07:47;15.40;99.90
52867;DHT22;38739;53.324;6.862;2023-08-07T00:10:13;15.40;99.90
52867;DHT22;38739;53.324;6.862;2023-08-07T00:12:40;15.50;99.90
52867;DHT22;38739;53.324;6.862;2023-08-07T00:15:06;15.50;99.90
52867;DHT22;38739;53.324;6.862;2023-08-07T00:17:32;15.50;99.90
52867;DHT22;38739;53.324;6.862;2023-08-07T00:19:57;15.50;99.90
52867;DHT22;38739;53.324;6.862;2023-08-07T00:22:23;15.50;99.90
52867;DHT22;38739;53.324;6.862;2023-08-07T00:24:50;15.50;99.90
52867;DHT22;38739;53.324;6.862;2023-08-07T00:27:16;15.60;99.90
52867;DHT22;38739;53.324;6.862;2023-08-07T00:29:42;15.50;99.90
52867;DHT22;38739;53.324;6.862;2023-08-07T00:32:07;15.50;99.90
52867;DHT22;38739;53.324;6.862;2023-08-07T00:34:34;15.50;99.90
52867;DHT22;38739;53.324;6.862;2023-08-07T00:37:00;15.50;99.90
52867;DHT22;38739;53.324;6.862;2023-08-07T00:39:25;15.50;99.90
52867;DHT22;38739;53.324;6.862;2023-08-07T00:41:51;15.50;99.90
52867;DHT22;38739;53.324;6.862;2023-08-07T00:44:17;15.40;99.90
52867;DHT22;38739;53.324;6.862;2023-08-07T00:46:43;15.40;99.90
52867;DHT22;38739;53.324;6.862;2023-08-07T00:49:11;15.30;99.90
52867;DHT22;38739;53.324;6.862;2023-08-07T00:51:38;15.30;99.90
52867;DHT22;38739;53.324;6.862;2023-08-07T00:54:05;15.30;99.90
52867;DHT22;38739;53.324;6.862;2023-08-07T00:56:32;15.30;99.90
52867;DHT22;38739;53.324;6.862;2023-08-07T00:58:59;15.30;99.90
52867;DHT22;38739;53.324;6.862;2023-08-07T01:01:25;15.20;99.90
52867;DHT22;38739;53.324;6.862;2023-08-07T01:03:51;15.20;99.90
52867;DHT22;38739;53.324;6.862;2023-08-07T01:06:17;15.20;99.90
52867;DHT22;38739;53.324;6.862;2023-08-07T01:08:43;15.20;99.90
52867;DHT22;38739;53.324;6.862;2023-08-07T01:14:02;15.20;99.90
52867;DHT22;38739;53.324;6.862;2023-08-07T01:16:52;15.20;99.90
52867;DHT22;38739;53.324;6.862;2023-08-07T01:19:24;15.20;99.90
52867;DHT22;38739;53.324;6.862;2023-08-07T01:22:03;15.20;99.90
52867;DHT22;38739;53.324;6.862;2023-08-07T01:24:29;15.20;99.90
52867;DHT22;38739;53.324;6.862;2023-08-07T01:26:55;15.20;99.90
52867;DHT22;38739;53.324;6.862;2023-08-07T01:29:34;15.20;99.90
52867;DHT22;38739;53.324;6.862;2023-08-07T01:32:04;15.20;99.90
52867;DHT22;38739;53.324;6.862;2023-08-07T01:34:31;15.20;99.90
52867;DHT22;38739;53.324;6.862;2023-08-07T01:36:59;15.20;99.90
52867;DHT22;38739;53.324;6.862;2023-08-07T01:39:26;15.20;99.90
52867;DHT22;38739;53.324;6.862;2023-08-07T01:41:53;15.20;99.90
52867;DHT22;38739;53.324;6.862;2023-08-07T01:44:19;15.10;99.90
52867;DHT22;38739;53.324;6.862;2023-08-07T01:46:44;15.10;99.90
52867;DHT22;38739;53.324;6.862;2023-08-07T01:49:10;15.10;99.90
52867;DHT22;38739;53.324;6.862;2023-08-07T01:51:35;15.10;99.90
52867;DHT22;38739;53.324;6.862;2023-08-07T01:54:01;15.00;99.90
52867;DHT22;38739;53.324;6.862;2023-08-07T01:56:27;15.00;99.90
52867;DHT22;38739;53.324;6.862;2023-08-07T01:58:52;15.00;99.90
52867;DHT22;38739;53.324;6.862;2023-08-07T02:01:18;15.00;99.90
52867;DHT22;38739;53.324;6.862;2023-08-07T02:03:44;14.90;99.90
52867;DHT22;38739;53.324;6.862;2023-08-07T02:06:09;14.90;99.90
52867;DHT22;38739;53.324;6.862;2023-08-07T02:08:36;14.90;99.90
52867;DHT22;38739;53.324;6.862;2023-08-07T02:11:01;14.90;99.90
52867;DHT22;38739;53.324;6.862;2023-08-07T02:13:28;14.90;99.90
52867;DHT22;38739;53.324;6.862;2023-08-07T02:15:54;14.90;99.90
52867;DHT22;38739;53.324;6.862;2023-08-07T02:18:19;14.90;99.90
52867;DHT22;38739;53.324;6.862;2023-08-07T02:20:45;14.90;99.90
52867;DHT22;38739;53.324;6.862;2023-08-07T02:23:11;14.90;99.90
52867;DHT22;38739;53.324;6.862;2023-08-07T02:25:37;14.90;99.90
52867;DHT22;38739;53.324;6.862;2023-08-07T02:28:03;14.90;99.90
52867;DHT22;38739;53.324;6.862;2023-08-07T02:30:30;14.90;99.90
52867;DHT22;38739;53.324;6.862;2023-08-07T02:32:56;14.80;99.90
52867;DHT22;38739;53.324;6.862;2023-08-07T02:35:22;14.90;99.90
52867;DHT22;38739;53.324;6.862;2023-08-07T02:37:47;14.80;99.90
52867;DHT22;38739;53.324;6.862;2023-08-07T02:40:13;14.80;99.90
52867;DHT22;38739;53.324;6.862;2023-08-07T02:42:41;14.70;99.90
52867;DHT22;38739;53.324;6.862;2023-08-07T02:45:08;14.70;99.90
52867;DHT22;38739;53.324;6.862;2023-08-07T02:47:33;14.70;99.90
52867;DHT22;38739;53.324;6.862;2023-08-07T02:49:59;14.60;99.90
52867;DHT22;38739;53.324;6.862;2023-08-07T02:52:25;14.60;99.90
52867;DHT22;38739;53.324;6.862;2023-08-07T02:54:50;14.60;99.90
52867;DHT22;38739;53.324;6.862;2023-08-07T02:57:16;14.50;99.90
52867;DHT22;38739;53.324;6.862;2023-08-07T02:59:42;14.50;99.90
52867;DHT22;38739;53.324;6.862;2023-08-07T03:02:07;14.50;99.90
52867;DHT22;38739;53.324;6.862;2023-08-07T03:04:33;14.50;99.90
52867;DHT22;38739;53.324;6.862;2023-08-07T03:07:00;14.40;99.90
52867;DHT22;38739;53.324;6.862;2023-08-07T03:09:25;14.40;99.90
52867;DHT22;38739;53.324;6.862;2023-08-07T03:11:52;14.40;99.90
52867;DHT22;38739;53.324;6.862;2023-08-07T03:14:18;14.30;99.90
52867;DHT22;38739;53.324;6.862;2023-08-07T03:16:45;14.30;99.90
52867;DHT22;38739;53.324;6.862;2023-08-07T03:19:10;14.20;99.90
52867;DHT22;38739;53.324;6.862;2023-08-07T03:21:36;14.20;99.90
52867;DHT22;38739;53.324;6.862;2023-08-07T03:24:02;14.20;99.90
52867;DHT22;38739;53.324;6.862;2023-08-07T03:26:27;14.20;99.90
52867;DHT22;38739;53.324;6.862;2023-08-07T03:28:53;14.10;99.90
52867;DHT22;38739;53.324;6.862;2023-08-07T03:31:19;14.20;99.90
52867;DHT22;38739;53.324;6.862;2023-08-07T03:33:45;14.20;99.90
52867;DHT22;38739;53.324;6.862;2023-08-07T03:36:10;14.20;99.90
52867;DHT22;38739;53.324;6.862;2023-08-07T03:38:36;14.20;99.90
52867;DHT22;38739;53.324;6.862;2023-08-07T03:41:02;14.20;99.90
52867;DHT22;38739;53.324;6.862;2023-08-07T03:43:28;14.20;99.90
52867;DHT22;38739;53.324;6.862;2023-08-07T03:45:55;14.30;99.90
52867;DHT22;38739;53.324;6.862;2023-08-07T03:48:22;14.20;99.90
52867;DHT22;38739;53.324;6.862;2023-08-07T03:50:47;14.20;99.90
52867;DHT22;38739;53.324;6.862;2023-08-07T03:53:13;14.30;99.90
52867;DHT22;38739;53.324;6.862;2023-08-07T03:55:39;14.30;99.90
52867;DHT22;38739;53.324;6.862;2023-08-07T03:58:06;14.30;99.90
52867;DHT22;38739;53.324;6.862;2023-08-07T04:00:32;14.40;99.90
52867;DHT22;38739;53.324;6.862;2023-08-07T04:02:57;14.40;99.90
52867;DHT22;38739;53.324;6.862;2023-08-07T04:05:23;14.40;99.90
52867;DHT22;38739;53.324;6.862;2023-08-07T04:07:49;14.50;99.90
52867;DHT22;38739;53.324;6.862;2023-08-07T04:10:15;14.50;99.90
52867;DHT22;38739;53.324;6.862;2023-08-07T04:12:40;14.60;99.90
52867;DHT22;38739;53.324;6.862;2023-08-07T04:15:06;14.50;99.90
52867;DHT22;38739;53.324;6.862;2023-08-07T04:17:32;14.50;99.90
52867;DHT22;38739;53.324;6.862;2023-08-07T04:19:58;14.50;99.90
52867;DHT22;38739;53.324;6.862;2023-08-07T04:22:23;14.50;99.90
52867;DHT22;38739;53.324;6.862;2023-08-07T04:24:49;14.60;99.90
52867;DHT22;38739;53.324;6.862;2023-08-07T04:27:15;14.60;99.90
52867;DHT22;38739;53.324;6.862;2023-08-07T04:29:40;14.60;99.90
52867;DHT22;38739;53.324;6.862;2023-08-07T04:32:06;14.70;99.90
52867;DHT22;38739;53.324;6.862;2023-08-07T04:34:32;14.60;99.90
52867;DHT22;38739;53.324;6.862;2023-08-07T04:36:58;14.60;99.90
52867;DHT22;38739;53.324;6.862;2023-08-07T04:39:24;14.70;99.90
52867;DHT22;38739;53.324;6.862;2023-08-07T04:41:49;14.70;99.90
52867;DHT22;38739;53.324;6.862;2023-08-07T04:44:16;14.70;99.90
52867;DHT22;38739;53.324;6.862;2023-08-07T04:46:42;14.70;99.90
52867;DHT22;38739;53.324;6.862;2023-08-07T04:49:07;14.70;99.90
52867;DHT22;38739;53.324;6.862;2023-08-07T04:51:33;14.70;99.90
52867;DHT22;38739;53.324;6.862;2023-08-07T04:53:59;14.80;99.90
52867;DHT22;38739;53.324;6.862;2023-08-07T04:56:24;14.70;99.90
52867;DHT22;38739;53.324;6.862;2023-08-07T04:58:50;14.70;99.90
52867;DHT22;38739;53.324;6.862;2023-08-07T05:01:16;14.70;99.90
52867;DHT22;38739;53.324;6.862;2023-08-07T05:03:42;14.80;99.90
52867;DHT22;38739;53.324;6.862;2023-08-07T05:06:07;14.80;99.90
52867;DHT22;38739;53.324;6.862;2023-08-07T05:08:33;14.80;99.90
52867;DHT22;38739;53.324;6.862;2023-08-07T05:10:59;14.80;99.90
52867;DHT22;38739;53.324;6.862;2023-08-07T05:13:24;14.80;99.90
52867;DHT22;38739;53.324;6.862;2023-08-07T05:15:50;14.80;99.90
52867;DHT22;38739;53.324;6.862;2023-08-07T05:18:16;14.80;99.90
52867;DHT22;38739;53.324;6.862;2023-08-07T05:20:42;14.80;99.90
52867;DHT22;38739;53.324;6.862;2023-08-07T05:23:08;14.80;99.90
52867;DHT22;38739;53.324;6.862;2023-08-07T05:25:34;14.80;99.90
52867;DHT22;38739;53.324;6.862;2023-08-07T05:28:00;14.80;99.90
52867;DHT22;38739;53.324;6.862;2023-08-07T05:30:25;14.90;99.90
52867;DHT22;38739;53.324;6.862;2023-08-07T05:32:51;14.90;99.90
52867;DHT22;38739;53.324;6.862;2023-08-07T05:35:16;14.90;99.90
52867;DHT22;38739;53.324;6.862;2023-08-07T05:37:42;14.90;99.90
52867;DHT22;38739;53.324;6.862;2023-08-07T05:40:08;14.90;99.90
52867;DHT22;38739;53.324;6.862;2023-08-07T05:42:37;14.90;99.90
52867;DHT22;38739;53.324;6.862;2023-08-07T05:45:03;14.90;99.90
52867;DHT22;38739;53.324;6.862;2023-08-07T05:47:29;14.90;99.90
52867;DHT22;38739;53.324;6.862;2023-08-07T05:49:55;14.90;99.90
52867;DHT22;38739;53.324;6.862;2023-08-07T05:52:20;14.90;99.90
52867;DHT22;38739;53.324;6.862;2023-08-07T05:54:46;14.90;99.90
52867;DHT22;38739;53.324;6.862;2023-08-07T05:57:13;14.90;99.90
52867;DHT22;38739;53.324;6.862;2023-08-07T05:59:38;14.90;99.90
52867;DHT22;38739;53.324;6.862;2023-08-07T06:02:06;15.00;99.90
52867;DHT22;38739;53.324;6.862;2023-08-07T06:04:32;14.90;99.90
52867;DHT22;38739;53.324;6.862;2023-08-07T06:06:57;15.00;99.90
52867;DHT22;38739;53.324;6.862;2023-08-07T06:09:24;14.90;99.90
52867;DHT22;38739;53.324;6.862;2023-08-07T06:11:50;15.00;99.90
52867;DHT22;38739;53.324;6.862;2023-08-07T06:14:15;15.00;99.90
52867;DHT22;38739;53.324;6.862;2023-08-07T06:16:41;15.00;99.90
52867;DHT22;38739;53.324;6.862;2023-08-07T06:19:07;15.10;99.90
52867;DHT22;38739;53.324;6.862;2023-08-07T06:21:34;15.10;99.90
52867;DHT22;38739;53.324;6.862;2023-08-07T06:23:59;15.10;99.90
52867;DHT22;38739;53.324;6.862;2023-08-07T06:26:25;15.10;99.90
52867;DHT22;38739;53.324;6.862;2023-08-07T06:28:51;15.10;99.90
52867;DHT22;38739;53.324;6.862;2023-08-07T06:31:17;15.10;99.90
52867;DHT22;38739;53.324;6.862;2023-08-07T06:33:43;15.10;99.90
52867;DHT22;38739;53.324;6.862;2023-08-07T06:36:09;15.20;99.90
52867;DHT22;38739;53.324;6.862;2023-08-07T06:38:35;15.30;99.90
52867;DHT22;38739;53.324;6.862;2023-08-07T06:41:01;15.40;99.90
52867;DHT22;38739;53.324;6.862;2023-08-07T06:43:26;15.50;99.90
52867;DHT22;38739;53.324;6.862;2023-08-07T06:45:54;15.60;99.90
52867;DHT22;38739;53.324;6.862;2023-08-07T06:48:19;15.70;99.90
52867;DHT22;38739;53.324;6.862;2023-08-07T06:50:49;15.70;99.90
52867;DHT22;38739;53.324;6.862;2023-08-07T06:53:15;15.60;99.90
52867;DHT22;38739;53.324;6.862;2023-08-07T06:55:44;15.60;99.90
52867;DHT22;38739;53.324;6.862;2023-08-07T06:58:10;15.60;99.90
52867;DHT22;38739;53.324;6.862;2023-08-07T07:00:36;15.60;99.90
52867;DHT22;38739;53.324;6.862;2023-08-07T07:03:03;15.60;99.90
52867;DHT22;38739;53.324;6.862;2023-08-07T07:05:29;15.60;99.90
52867;DHT22;38739;53.324;6.862;2023-08-07T07:07:56;15.70;99.90
52867;DHT22;38739;53.324;6.862;2023-08-07T07:10:21;15.80;99.90
52867;DHT22;38739;53.324;6.862;2023-08-07T07:12:47;15.90;99.90
52867;DHT22;38739;53.324;6.862;2023-08-07T07:15:14;16.00;99.90
52867;DHT22;38739;53.324;6.862;2023-08-07T07:17:39;16.00;99.90
52867;DHT22;38739;53.324;6.862;2023-08-07T07:20:06;16.10;99.90
52867;DHT22;38739;53.324;6.862;2023-08-07T07:22:34;16.20;99.90
52867;DHT22;38739;53.324;6.862;2023-08-07T07:25:00;16.20;99.90
52867;DHT22;38739;53.324;6.862;2023-08-07T07:27:26;16.20;99.90
52867;DHT22;38739;53.324;6.862;2023-08-07T07:29:52;16.20;99.90
52867;DHT22;38739;53.324;6.862;2023-08-07T07:32:17;16.20;99.90
52867;DHT22;38739;53.324;6.862;2023-08-07T07:34:43;16.30;99.90
52867;DHT22;38739;53.324;6.862;2023-08-07T07:37:09;16.40;99.90
52867;DHT22;38739;53.324;6.862;2023-08-07T07:39:35;16.40;99.90
52867;DHT22;38739;53.324;6.862;2023-08-07T07:42:01;16.50;99.90
52867;DHT22;38739;53.324;6.862;2023-08-07T07:44:28;16.60;99.90
52867;DHT22;38739;53.324;6.862;2023-08-07T07:46:54;16.60;99.90
52867;DHT22;38739;53.324;6.862;2023-08-07T07:49:20;16.70;99.90
52867;DHT22;38739;53.324;6.862;2023-08-07T07:51:46;16.80;99.90
52867;DHT22;38739;53.324;6.862;2023-08-07T07:54:12;16.90;99.90
52867;DHT22;38739;53.324;6.862;2023-08-07T07:56:37;16.90;99.90
52867;DHT22;38739;53.324;6.862;2023-08-07T07:59:03;16.90;99.90
52867;DHT22;38739;53.324;6.862;2023-08-07T08:01:28;16.90;99.90
52867;DHT22;38739;53.324;6.862;2023-08-07T08:03:54;16.90;99.90
52867;DHT22;38739;53.324;6.862;2023-08-07T08:06:23;16.90;99.90
52867;DHT22;38739;53.324;6.862;2023-08-07T08:08:48;17.00;99.90
52867;DHT22;38739;53.324;6.862;2023-08-07T08:11:14;17.00;99.90
52867;DHT22;38739;53.324;6.862;2023-08-07T08:13:40;17.00;99.90
52867;DHT22;38739;53.324;6.862;2023-08-07T08:16:06;16.90;99.90
52867;DHT22;38739;53.324;6.862;2023-08-07T08:18:32;17.00;99.90
52867;DHT22;38739;53.324;6.862;2023-08-07T08:20:58;17.10;99.90
52867;DHT22;38739;53.324;6.862;2023-08-07T08:23:24;17.20;99.90
52867;DHT22;38739;53.324;6.862;2023-08-07T08:25:49;17.10;99.90
52867;DHT22;38739;53.324;6.862;2023-08-07T08:28:17;17.10;99.90
52867;DHT22;38739;53.324;6.862;2023-08-07T08:30:43;17.30;99.90
52867;DHT22;38739;53.324;6.862;2023-08-07T08:33:09;17.20;99.90
52867;DHT22;38739;53.324;6.862;2023-08-07T08:35:38;17.20;99.90
52867;DHT22;38739;53.324;6.862;2023-08-07T08:38:03;17.00;99.90
52867;DHT22;38739;53.324;6.862;2023-08-07T08:40:30;17.10;99.90
52867;DHT22;38739;53.324;6.862;2023-08-07T08:42:57;17.30;99.90
52867;DHT22;38739;53.324;6.862;2023-08-07T08:45:26;17.40;99.90
52867;DHT22;38739;53.324;6.862;2023-08-07T08:47:54;17.40;99.90
52867;DHT22;38739;53.324;6.862;2023-08-07T08:50:21;17.20;99.90
52867;DHT22;38739;53.324;6.862;2023-08-07T08:52:46;17.00;99.90
52867;DHT22;38739;53.324;6.862;2023-08-07T08:55:13;16.80;99.90
52867;DHT22;38739;53.324;6.862;2023-08-07T08:57:39;16.70;99.90
52867;DHT22;38739;53.324;6.862;2023-08-07T09:00:09;16.70;99.90
52867;DHT22;38739;53.324;6.862;2023-08-07T09:02:47;16.60;99.90
52867;DHT22;38739;53.324;6.862;2023-08-07T09:05:18;16.70;99.90
52867;DHT22;38739;53.324;6.862;2023-08-07T09:07:45;16.70;99.90
52867;DHT22;38739;53.324;6.862;2023-08-07T09:10:16;16.60;99.90
52867;DHT22;38739;53.324;6.862;2023-08-07T09:13:00;16.50;99.90
52867;DHT22;38739;53.324;6.862;2023-08-07T09:15:28;16.40;99.90
52867;DHT22;38739;53.324;6.862;2023-08-07T09:17:55;16.30;99.90
52867;DHT22;38739;53.324;6.862;2023-08-07T09:20:21;16.20;99.90
52867;DHT22;38739;53.324;6.862;2023-08-07T09:22:48;16.10;99.90
52867;DHT22;38739;53.324;6.862;2023-08-07T09:25:14;16.10;99.90
52867;DHT22;38739;53.324;6.862;2023-08-07T09:27:40;16.00;99.90
52867;DHT22;38739;53.324;6.862;2023-08-07T09:30:07;16.10;99.90
52867;DHT22;38739;53.324;6.862;2023-08-07T09:32:36;16.10;99.90
52867;DHT22;38739;53.324;6.862;2023-08-07T09:35:05;16.10;99.90
52867;DHT22;38739;53.324;6.862;2023-08-07T09:37:31;16.10;99.90
52867;DHT22;38739;53.324;6.862;2023-08-07T09:40:00;16.20;99.90
52867;DHT22;38739;53.324;6.862;2023-08-07T09:42:30;16.30;99.90
52867;DHT22;38739;53.324;6.862;2023-08-07T09:44:57;16.60;99.90
52867;DHT22;38739;53.324;6.862;2023-08-07T09:47:22;17.10;99.90
52867;DHT22;38739;53.324;6.862;2023-08-07T09:49:48;17.50;99.90
52867;DHT22;38739;53.324;6.862;2023-08-07T09:52:19;17.90;99.90
52867;DHT22;38739;53.324;6.862;2023-08-07T09:54:44;18.30;99.90
52867;DHT22;38739;53.324;6.862;2023-08-07T09:57:10;18.60;99.90
52867;DHT22;38739;53.324;6.862;2023-08-07T09:59:36;18.60;99.90
52867;DHT22;38739;53.324;6.862;2023-08-07T10:02:03;18.50;99.90
52867;DHT22;38739;53.324;6.862;2023-08-07T10:04:29;18.30;99.90
52867;DHT22;38739;53.324;6.862;2023-08-07T10:06:56;18.20;99.90
52867;DHT22;38739;53.324;6.862;2023-08-07T10:09:22;18.10;99.90
52867;DHT22;38739;53.324;6.862;2023-08-07T10:11:49;17.90;99.90
52867;DHT22;38739;53.324;6.862;2023-08-07T10:14:16;17.70;99.90
52867;DHT22;38739;53.324;6.862;2023-08-07T10:16:42;17.50;99.90
52867;DHT22;38739;53.324;6.862;2023-08-07T10:19:09;17.30;99.90
52867;DHT22;38739;53.324;6.862;2023-08-07T10:21:36;17.30;99.90
52867;DHT22;38739;53.324;6.862;2023-08-07T10:24:08;17.30;99.90
52867;DHT22;38739;53.324;6.862;2023-08-07T10:26:37;17.20;99.90
52867;DHT22;38739;53.324;6.862;2023-08-07T10:29:06;17.20;99.90
52867;DHT22;38739;53.324;6.862;2023-08-07T10:31:35;17.10;99.90
52867;DHT22;38739;53.324;6.862;2023-08-07T10:34:02;17.10;99.90
52867;DHT22;38739;53.324;6.862;2023-08-07T10:36:34;17.10;99.90
52867;DHT22;38739;53.324;6.862;2023-08-07T10:41:41;17.00;99.90
52867;DHT22;38739;53.324;6.862;2023-08-07T10:44:20;16.90;99.90
52867;DHT22;38739;53.324;6.862;2023-08-07T10:46:48;16.90;99.90
52867;DHT22;38739;53.324;6.862;2023-08-07T10:49:34;16.80;99.90
52867;DHT22;38739;53.324;6.862;2023-08-07T10:54:40;16.90;99.90
52867;DHT22;38739;53.324;6.862;2023-08-07T10:57:12;17.00;99.90
52867;DHT22;38739;53.324;6.862;2023-08-07T11:02:25;17.20;99.90
52867;DHT22;38739;53.324;6.862;2023-08-07T11:04:53;17.30;99.90
52867;DHT22;38739;53.324;6.862;2023-08-07T11:07:27;17.40;99.90
52867;DHT22;38739;53.324;6.862;2023-08-07T11:09:57;17.60;99.90
52867;DHT22;38739;53.324;6.862;2023-08-07T11:12:27;17.70;99.90
52867;DHT22;38739;53.324;6.862;2023-08-07T11:14:54;17.90;99.90
52867;DHT22;38739;53.324;6.862;2023-08-07T11:17:27;18.40;99.90
52867;DHT22;38739;53.324;6.862;2023-08-07T11:19:55;18.90;99.90
52867;DHT22;38739;53.324;6.862;2023-08-07T11:22:21;19.40;99.90
52867;DHT22;38739;53.324;6.862;2023-08-07T11:24:47;19.90;99.90
52867;DHT22;38739;53.324;6.862;2023-08-07T11:27:13;20.40;99.90
52867;DHT22;38739;53.324;6.862;2023-08-07T11:29:38;20.40;99.90
52867;DHT22;38739;53.324;6.862;2023-08-07T11:32:05;20.20;99.90
52867;DHT22;38739;53.324;6.862;2023-08-07T11:34:31;19.90;99.90
52867;DHT22;38739;53.324;6.862;2023-08-07T11:36:57;19.80;99.90
52867;DHT22;38739;53.324;6.862;2023-08-07T11:39:23;19.60;99.90
52867;DHT22;38739;53.324;6.862;2023-08-07T11:41:53;19.40;99.90
52867;DHT22;38739;53.324;6.862;2023-08-07T11:44:19;19.30;99.90
52867;DHT22;38739;53.324;6.862;2023-08-07T11:46:45;19.30;99.90
52867;DHT22;38739;53.324;6.862;2023-08-07T11:49:11;19.30;99.90
52867;DHT22;38739;53.324;6.862;2023-08-07T11:51:37;19.30;99.90
52867;DHT22;38739;53.324;6.862;2023-08-07T11:54:03;19.50;99.90
52867;DHT22;38739;53.324;6.862;2023-08-07T11:56:29;19.70;99.90
52867;DHT22;38739;53.324;6.862;2023-08-07T11:58:57;20.20;99.90
52867;DHT22;38739;53.324;6.862;2023-08-07T12:01:25;20.50;99.90
52867;DHT22;38739;53.324;6.862;2023-08-07T12:03:57;20.70;99.90
52867;DHT22;38739;53.324;6.862;2023-08-07T12:06:24;20.70;99.90
52867;DHT22;38739;53.324;6.862;2023-08-07T12:08:55;20.70;99.90
52867;DHT22;38739;53.324;6.862;2023-08-07T12:11:21;20.80;99.90
52867;DHT22;38739;53.324;6.862;2023-08-07T12:13:47;20.80;99.90
52867;DHT22;38739;53.324;6.862;2023-08-07T12:16:14;20.90;99.90
52867;DHT22;38739;53.324;6.862;2023-08-07T12:18:49;21.00;99.90
52867;DHT22;38739;53.324;6.862;2023-08-07T12:21:16;20.90;99.90
52867;DHT22;38739;53.324;6.862;2023-08-07T12:23:47;20.70;99.90
52867;DHT22;38739;53.324;6.862;2023-08-07T12:26:19;20.80;99.90
52867;DHT22;38739;53.324;6.862;2023-08-07T12:28:45;20.90;99.90
52867;DHT22;38739;53.324;6.862;2023-08-07T12:31:10;21.00;99.90
52867;DHT22;38739;53.324;6.862;2023-08-07T12:33:36;20.80;99.90
52867;DHT22;38739;53.324;6.862;2023-08-07T12:36:02;20.90;99.90
52867;DHT22;38739;53.324;6.862;2023-08-07T12:38:29;20.90;99.90
52867;DHT22;38739;53.324;6.862;2023-08-07T12:40:54;20.90;99.90
52867;DHT22;38739;53.324;6.862;2023-08-07T12:43:20;20.90;99.90
52867;DHT22;38739;53.324;6.862;2023-08-07T12:45:46;21.20;99.90
52867;DHT22;38739;53.324;6.862;2023-08-07T12:48:12;21.20;99.90
52867;DHT22;38739;53.324;6.862;2023-08-07T12:50:38;21.20;99.90
52867;DHT22;38739;53.324;6.862;2023-08-07T12:53:05;21.20;99.90
52867;DHT22;38739;53.324;6.862;2023-08-07T12:55:31;21.10;99.90
52867;DHT22;38739;53.324;6.862;2023-08-07T12:57:57;21.00;99.90
52867;DHT22;38739;53.324;6.862;2023-08-07T13:00:23;20.90;99.90
52867;DHT22;38739;53.324;6.862;2023-08-07T13:02:50;20.80;99.90
52867;DHT22;38739;53.324;6.862;2023-08-07T13:05:16;20.80;99.90
52867;DHT22;38739;53.324;6.862;2023-08-07T13:07:44;20.80;99.90
52867;DHT22;38739;53.324;6.862;2023-08-07T13:10:14;20.60;99.90
52867;DHT22;38739;53.324;6.862;2023-08-07T13:12:41;20.40;99.90
52867;DHT22;38739;53.324;6.862;2023-08-07T13:15:09;20.20;99.90
52867;DHT22;38739;53.324;6.862;2023-08-07T13:17:35;20.00;99.90
52867;DHT22;38739;53.324;6.862;2023-08-07T13:20:03;19.80;99.90
52867;DHT22;38739;53.324;6.862;2023-08-07T13:22:34;19.80;99.90
52867;DHT22;38739;53.324;6.862;2023-08-07T13:25:00;19.80;99.90
52867;DHT22;38739;53.324;6.862;2023-08-07T13:27:26;19.70;99.90
52867;DHT22;38739;53.324;6.862;2023-08-07T13:29:52;19.70;99.90
52867;DHT22;38739;53.324;6.862;2023-08-07T13:32:18;19.60;99.90
52867;DHT22;38739;53.324;6.862;2023-08-07T13:34:45;19.40;99.90
52867;DHT22;38739;53.324;6.862;2023-08-07T13:37:11;19.20;99.90
52867;DHT22;38739;53.324;6.862;2023-08-07T13:39:37;19.30;99.90
52867;DHT22;38739;53.324;6.862;2023-08-07T13:42:03;19.60;99.90
52867;DHT22;38739;53.324;6.862;2023-08-07T13:44:29;19.70;99.90
52867;DHT22;38739;53.324;6.862;2023-08-07T13:46:55;19.60;99.90
52867;DHT22;38739;53.324;6.862;2023-08-07T13:49:24;19.50;99.90
52867;DHT22;38739;53.324;6.862;2023-08-07T13:51:50;19.30;99.90
52867;DHT22;38739;53.324;6.862;2023-08-07T13:54:16;19.20;99.90
52867;DHT22;38739;53.324;6.862;2023-08-07T13:56:42;19.10;99.90
52867;DHT22;38739;53.324;6.862;2023-08-07T13:59:07;18.80;99.90
52867;DHT22;38739;53.324;6.862;2023-08-07T14:01:35;18.50;99.90
52867;DHT22;38739;53.324;6.862;2023-08-07T14:04:01;18.20;99.90
52867;DHT22;38739;53.324;6.862;2023-08-07T14:06:27;18.20;99.90
52867;DHT22;38739;53.324;6.862;2023-08-07T14:08:53;18.40;99.90
52867;DHT22;38739;53.324;6.862;2023-08-07T14:11:19;18.60;99.90
52867;DHT22;38739;53.324;6.862;2023-08-07T14:13:45;18.50;99.90
52867;DHT22;38739;53.324;6.862;2023-08-07T14:16:12;18.50;99.90
52867;DHT22;38739;53.324;6.862;2023-08-07T14:18:38;18.30;99.90
52867;DHT22;38739;53.324;6.862;2023-08-07T14:21:04;18.20;99.90
52867;DHT22;38739;53.324;6.862;2023-08-07T14:23:30;18.20;99.90
52867;DHT22;38739;53.324;6.862;2023-08-07T14:25:55;18.10;99.90
52867;DHT22;38739;53.324;6.862;2023-08-07T14:28:21;18.20;99.90
52867;DHT22;38739;53.324;6.862;2023-08-07T14:30:47;18.30;99.90
52867;DHT22;38739;53.324;6.862;2023-08-07T14:33:13;18.30;99.90
52867;DHT22;38739;53.324;6.862;2023-08-07T14:35:39;18.60;99.90
52867;DHT22;38739;53.324;6.862;2023-08-07T14:38:05;18.50;99.90
52867;DHT22;38739;53.324;6.862;2023-08-07T14:40:30;18.50;99.90
52867;DHT22;38739;53.324;6.862;2023-08-07T14:42:56;18.80;99.90
52867;DHT22;38739;53.324;6.862;2023-08-07T14:45:22;18.80;99.90
52867;DHT22;38739;53.324;6.862;2023-08-07T14:47:49;18.70;99.90
52867;DHT22;38739;53.324;6.862;2023-08-07T14:50:15;18.60;99.90
52867;DHT22;38739;53.324;6.862;2023-08-07T14:52:42;18.40;99.90
52867;DHT22;38739;53.324;6.862;2023-08-07T14:55:08;18.30;99.90
52867;DHT22;38739;53.324;6.862;2023-08-07T14:57:34;18.20;99.90
52867;DHT22;38739;53.324;6.862;2023-08-07T14:59:59;18.20;99.90
52867;DHT22;38739;53.324;6.862;2023-08-07T15:02:25;18.20;99.90
52867;DHT22;38739;53.324;6.862;2023-08-07T15:04:51;18.10;99.90
52867;DHT22;38739;53.324;6.862;2023-08-07T15:07:17;18.00;99.90
52867;DHT22;38739;53.324;6.862;2023-08-07T15:09:43;18.00;99.90
52867;DHT22;38739;53.324;6.862;2023-08-07T15:12:09;17.90;99.90
52867;DHT22;38739;53.324;6.862;2023-08-07T15:14:35;17.90;99.90
52867;DHT22;38739;53.324;6.862;2023-08-07T15:17:00;18.00;99.90
52867;DHT22;38739;53.324;6.862;2023-08-07T15:19:26;18.00;99.90
52867;DHT22;38739;53.324;6.862;2023-08-07T15:21:52;18.30;99.90
52867;DHT22;38739;53.324;6.862;2023-08-07T15:24:17;18.30;99.90
52867;DHT22;38739;53.324;6.862;2023-08-07T15:26:43;18.40;99.90
52867;DHT22;38739;53.324;6.862;2023-08-07T15:29:09;18.40;99.90
52867;DHT22;38739;53.324;6.862;2023-08-07T15:31:34;18.30;99.90
52867;DHT22;38739;53.324;6.862;2023-08-07T15:34:00;18.30;99.90
52867;DHT22;38739;53.324;6.862;2023-08-07T15:36:26;18.40;99.90